Time;durP1;ratioP1;P1;durP2;ratioP2;P2;SDS_P1;SDS_P2;PMS_P1;PMS_P2;Temp;Humidity;BMP_temperature;BMP_pressure;BME280_temperature;BME280_humidity;BME280_pressure;Samples;Min_cycle;Max_cycle;Signal;HPM_P1;HPM_P2
2021/06/12 00:00:56;;;;;;;7.55;6.25;;;17.40;69.80;;;;;;5076556;28;20167;-77
2021/06/12 00:03:22;;;;;;;7.20;6.50;;;17.30;70.00;;;;;;5076762;28;20036;-76
2021/06/12 00:05:47;;;;;;;11.07;6.28;;;17.30;70.00;;;;;;5076374;28;20017;-76
2021/06/12 00:08:13;;;;;;;7.28;5.63;;;17.30;70.10;;;;;;5076290;28;20035;-81
2021/06/12 00:10:39;;;;;;;10.13;6.65;;;17.30;69.80;;;;;;5076282;28;20492;-78
2021/06/12 00:13:06;;;;;;;7.18;6.47;;;17.20;70.10;;;;;;5076501;28;20150;-78
2021/06/12 00:15:33;;;;;;;11.35;6.82;;;17.20;71.40;;;;;;5076397;28;20017;-77
2021/06/12 00:17:58;;;;;;;7.15;6.25;;;17.10;70.50;;;;;;5076221;28;20028;-75
2021/06/12 00:20:27;;;;;;;7.80;6.53;;;17.20;70.30;;;;;;5074498;28;20469;-76
2021/06/12 00:22:53;;;;;;;8.02;6.00;;;17.10;70.20;;;;;;5075839;28;20040;-75
2021/06/12 00:25:22;;;;;;;6.78;5.63;;;17.00;70.50;;;;;;5075988;28;20020;-75
2021/06/12 00:27:48;;;;;;;6.15;5.55;;;16.90;70.90;;;;;;5075858;28;20024;-75
2021/06/12 00:30:15;;;;;;;7.60;5.90;;;16.80;71.10;;;;;;5075663;28;20119;-75
2021/06/12 00:32:41;;;;;;;6.70;6.00;;;16.80;71.40;;;;;;5075653;28;20431;-77
2021/06/12 00:35:09;;;;;;;9.43;5.80;;;16.70;71.80;;;;;;5075690;28;20025;-76
2021/06/12 00:37:34;;;;;;;8.68;5.97;;;16.60;72.00;;;;;;5075442;28;20033;-76
2021/06/12 00:40:00;;;;;;;7.25;5.72;;;16.60;72.80;;;;;;5075655;28;20103;-76
2021/06/12 00:42:26;;;;;;;9.60;6.15;;;16.70;72.10;;;;;;5075541;28;20039;-77
2021/06/12 00:44:52;;;;;;;6.10;5.50;;;16.70;72.30;;;;;;5075553;28;20052;-77
2021/06/12 00:47:17;;;;;;;8.45;6.00;;;16.70;72.30;;;;;;5075282;28;20052;-77
2021/06/12 00:49:43;;;;;;;9.05;5.63;;;16.60;72.20;;;;;;5075231;28;20028;-77
2021/06/12 00:52:09;;;;;;;7.55;5.95;;;16.60;72.40;;;;;;5075145;28;20085;-77
2021/06/12 00:54:36;;;;;;;6.30;5.63;;;16.60;72.40;;;;;;5075221;28;20032;-76
2021/06/12 00:57:03;;;;;;;7.93;5.47;;;16.60;72.40;;;;;;5075090;28;20017;-77
2021/06/12 00:59:30;;;;;;;6.93;5.38;;;16.60;72.60;;;;;;5074995;28;20024;-76
2021/06/12 01:01:56;;;;;;;7.53;5.35;;;16.60;72.50;;;;;;5074835;28;20485;-76
2021/06/12 01:04:22;;;;;;;6.78;5.43;;;16.60;72.60;;;;;;5075034;28;20054;-77
2021/06/12 01:06:50;;;;;;;15.45;5.93;;;16.50;72.70;;;;;;5074864;28;20028;-77
2021/06/12 01:09:21;;;;;;;8.75;5.75;;;16.50;72.70;;;;;;5074095;28;20130;-78
2021/06/12 01:12:24;;;;;;;6.75;5.75;;;16.50;72.70;;;;;;5074811;28;20174;-78
2021/06/12 01:14:54;;;;;;;5.97;5.38;;;16.50;72.80;;;;;;5063333;28;20060;-77
2021/06/12 01:17:33;;;;;;;9.25;5.43;;;16.40;73.00;;;;;;5074570;28;20027;-77
2021/06/12 01:20:21;;;;;;;6.40;5.68;;;16.40;73.20;;;;;;5074690;28;20029;-77
2021/06/12 01:22:54;;;;;;;6.75;5.47;;;16.40;73.20;;;;;;5074455;28;20125;-76
2021/06/12 01:25:46;;;;;;;8.95;6.05;;;16.30;73.40;;;;;;5074591;28;20025;-76
2021/06/12 01:28:36;;;;;;;7.05;5.45;;;16.30;73.50;;;;;;5074460;28;20385;-77
2021/06/12 01:31:02;;;;;;;6.63;5.70;;;16.20;73.70;;;;;;5074443;28;20025;-77
2021/06/12 01:33:28;;;;;;;6.60;5.80;;;16.30;73.80;;;;;;5074329;28;20093;-77
2021/06/12 01:36:00;;;;;;;7.97;5.63;;;16.20;73.90;;;;;;5074406;28;20051;-77
2021/06/12 01:38:32;;;;;;;6.70;5.40;;;16.20;74.10;;;;;;5074130;28;20062;-77
2021/06/12 01:41:02;;;;;;;6.30;5.45;;;16.10;74.30;;;;;;5074086;28;20561;-78
2021/06/12 01:43:31;;;;;;;8.55;5.63;;;16.10;74.30;;;;;;5074333;28;20489;-78
2021/06/12 01:45:58;;;;;;;6.18;5.57;;;16.10;74.20;;;;;;5073827;28;20521;-78
2021/06/12 01:48:23;;;;;;;6.50;5.25;;;16.10;74.30;;;;;;5074135;28;20109;-78
2021/06/12 01:50:50;;;;;;;6.50;5.03;;;16.20;74.10;;;;;;5074088;28;20067;-77
2021/06/12 01:53:19;;;;;;;7.30;5.13;;;16.10;74.20;;;;;;5073982;28;20032;-77
2021/06/12 01:55:47;;;;;;;9.32;5.97;;;16.10;74.30;;;;;;5074019;28;20033;-78
2021/06/12 01:58:22;;;;;;;6.38;5.78;;;16.10;74.30;;;;;;5074042;28;20028;-79
2021/06/12 02:00:48;;;;;;;8.85;5.28;;;16.20;74.20;;;;;;5074099;28;20459;-79
2021/06/12 02:03:14;;;;;;;10.07;5.70;;;16.10;74.20;;;;;;5074271;28;20598;-79
2021/06/12 02:05:41;;;;;;;6.85;5.20;;;16.10;74.20;;;;;;5074102;28;20025;-79
2021/06/12 02:08:08;;;;;;;6.80;4.95;;;16.10;74.20;;;;;;5073891;28;20026;-80
2021/06/12 02:10:34;;;;;;;6.72;5.18;;;16.10;74.40;;;;;;5073893;28;20021;-78
2021/06/12 02:13:00;;;;;;;7.07;5.20;;;16.10;74.60;;;;;;5073789;28;20071;-79
2021/06/12 02:15:28;;;;;;;7.65;5.43;;;16.10;75.60;;;;;;5073705;28;20021;-79
2021/06/12 02:17:58;;;;;;;7.28;6.15;;;16.00;74.80;;;;;;5072394;28;20039;-79
2021/06/12 02:20:24;;;;;;;8.82;5.85;;;16.00;74.70;;;;;;5073437;28;20381;-79
2021/06/12 02:22:51;;;;;;;9.10;5.68;;;16.00;74.60;;;;;;5072997;28;20044;-77
2021/06/12 02:25:17;;;;;;;6.35;5.70;;;16.00;74.80;;;;;;5073684;28;20122;-78
2021/06/12 02:27:53;;;;;;;6.53;5.40;;;15.90;75.10;;;;;;5075378;28;20021;-77
2021/06/12 02:30:22;;;;;;;6.93;5.90;;;16.00;75.20;;;;;;5077140;28;20051;-78
2021/06/12 02:32:51;;;;;;;7.03;5.57;;;15.90;75.50;;;;;;5079198;28;20024;-77
2021/06/12 02:35:17;;;;;;;7.95;6.32;;;15.90;75.60;;;;;;5077528;28;20028;-77
2021/06/12 02:37:44;;;;;;;6.40;5.22;;;15.90;75.60;;;;;;5073735;28;20080;-77
2021/06/12 02:40:10;;;;;;;8.65;5.53;;;15.90;75.40;;;;;;5073107;28;20033;-77
2021/06/12 02:42:36;;;;;;;6.22;5.63;;;15.90;75.60;;;;;;5072960;28;20086;-77
2021/06/12 02:45:04;;;;;;;6.60;5.28;;;15.90;75.40;;;;;;5073003;28;20013;-77
2021/06/12 02:47:31;;;;;;;7.88;5.20;;;15.90;75.50;;;;;;5072728;28;20102;-78
2021/06/12 02:49:58;;;;;;;7.55;5.18;;;15.90;75.60;;;;;;5073051;28;20086;-77
2021/06/12 02:52:32;;;;;;;5.90;4.80;;;15.80;75.70;;;;;;5073111;28;20020;-77
2021/06/12 02:55:01;;;;;;;11.80;5.32;;;15.90;75.80;;;;;;5072915;28;20052;-78
2021/06/12 02:57:29;;;;;;;6.22;5.50;;;15.90;75.70;;;;;;5072772;28;20082;-77
2021/06/12 02:59:57;;;;;;;9.38;5.30;;;15.90;75.70;;;;;;5072705;28;20538;-78
2021/06/12 03:02:24;;;;;;;6.72;5.35;;;15.90;75.80;;;;;;5072866;28;20032;-79
2021/06/12 03:04:51;;;;;;;9.68;5.53;;;15.90;75.90;;;;;;5072811;28;20017;-82
2021/06/12 03:07:19;;;;;;;5.85;5.25;;;15.90;76.00;;;;;;5071563;28;20384;-81
2021/06/12 03:09:45;;;;;;;5.68;5.18;;;15.80;75.90;;;;;;5073050;28;20020;-81
2021/06/12 03:12:12;;;;;;;7.63;5.82;;;15.80;75.90;;;;;;5073047;28;20187;-81
2021/06/12 03:14:40;;;;;;;7.10;5.10;;;15.80;75.90;;;;;;5073060;28;20025;-82
2021/06/12 03:17:10;;;;;;;7.00;5.05;;;15.70;76.10;;;;;;5072940;28;20446;-81
2021/06/12 03:19:37;;;;;;;6.72;5.68;;;15.80;76.20;;;;;;5072970;28;20017;-77
2021/06/12 03:22:04;;;;;;;6.43;5.65;;;15.80;76.10;;;;;;5072921;28;20032;-77
2021/06/12 03:24:31;;;;;;;6.00;5.45;;;15.70;76.10;;;;;;5072723;28;20039;-77
2021/06/12 03:27:01;;;;;;;8.35;6.15;;;15.70;76.30;;;;;;5072850;28;20021;-77
2021/06/12 03:29:27;;;;;;;7.25;5.60;;;15.70;76.40;;;;;;5071329;28;20078;-77
2021/06/12 03:31:54;;;;;;;6.38;5.25;;;15.70;76.60;;;;;;5071291;28;20025;-78
2021/06/12 03:34:21;;;;;;;6.53;5.38;;;15.60;76.70;;;;;;5072372;28;20020;-77
2021/06/12 03:36:46;;;;;;;6.32;5.30;;;15.70;76.90;;;;;;5076036;28;20029;-77
2021/06/12 03:39:12;;;;;;;6.72;5.50;;;15.70;76.80;;;;;;5085641;28;20020;-77
2021/06/12 03:41:38;;;;;;;5.75;5.07;;;15.70;76.60;;;;;;5086931;28;20025;-77
2021/06/12 03:44:05;;;;;;;6.88;5.53;;;15.80;76.40;;;;;;5089033;28;20088;-77
2021/06/12 03:46:32;;;;;;;6.25;5.50;;;15.80;76.10;;;;;;5089086;28;20055;-77
2021/06/12 03:48:57;;;;;;;7.38;5.22;;;15.80;76.40;;;;;;5085334;28;20067;-78
2021/06/12 03:51:24;;;;;;;6.30;5.40;;;15.70;76.90;;;;;;5072791;28;20052;-78
2021/06/12 03:53:52;;;;;;;7.85;6.20;;;15.60;77.30;;;;;;5071458;28;20025;-79
2021/06/12 03:56:20;;;;;;;6.68;5.53;;;15.60;77.30;;;;;;5072265;28;20071;-78
2021/06/12 03:58:56;;;;;;;9.98;5.78;;;15.50;77.80;;;;;;5072562;28;20060;-79
2021/06/12 04:01:21;;;;;;;7.78;5.78;;;15.50;78.10;;;;;;5072467;28;20036;-78
2021/06/12 04:03:47;;;;;;;9.32;6.25;;;15.50;78.10;;;;;;5072423;28;20089;-78
2021/06/12 04:06:13;;;;;;;7.47;6.00;;;15.50;78.20;;;;;;5072381;28;20103;-78
2021/06/12 04:08:38;;;;;;;9.35;6.70;;;15.60;78.40;;;;;;5072474;28;20031;-78
2021/06/12 04:11:06;;;;;;;7.68;6.22;;;15.60;78.30;;;;;;5072363;28;20027;-79
2021/06/12 04:13:31;;;;;;;8.85;7.93;;;15.70;78.50;;;;;;5072049;28;20056;-78
2021/06/12 04:15:57;;;;;;;7.03;6.35;;;15.80;78.60;;;;;;5072227;28;20165;-78
2021/06/12 04:18:23;;;;;;;8.65;7.72;;;15.90;78.30;;;;;;5072100;28;20024;-78
2021/06/12 04:20:49;;;;;;;8.18;7.38;;;16.00;77.90;;;;;;5072035;28;20027;-78
2021/06/12 04:23:15;;;;;;;11.18;8.85;;;16.10;77.60;;;;;;5072219;28;20031;-78
2021/06/12 04:25:41;;;;;;;7.45;6.60;;;16.10;77.30;;;;;;5072004;28;20100;-78
2021/06/12 04:28:07;;;;;;;9.63;7.30;;;16.20;77.20;;;;;;5071903;28;20584;-77
2021/06/12 04:30:34;;;;;;;11.68;8.43;;;16.30;76.90;;;;;;5071850;28;20043;-77
2021/06/12 04:33:02;;;;;;;7.30;6.60;;;16.40;76.30;;;;;;5072284;28;20020;-77
2021/06/12 04:35:28;;;;;;;8.18;7.38;;;16.50;76.20;;;;;;5071916;28;20076;-78
2021/06/12 04:37:58;;;;;;;8.27;7.07;;;16.50;75.80;;;;;;5072005;28;20032;-78
2021/06/12 04:40:24;;;;;;;7.75;6.32;;;16.50;75.30;;;;;;5071754;28;20046;-78
2021/06/12 04:42:49;;;;;;;9.13;5.90;;;16.50;75.20;;;;;;5071876;28;20029;-79
2021/06/12 04:45:15;;;;;;;7.10;5.35;;;16.40;75.10;;;;;;5072423;28;20468;-78
2021/06/12 04:47:41;;;;;;;7.57;5.60;;;16.30;75.10;;;;;;5075363;28;20056;-79
2021/06/12 04:50:09;;;;;;;6.28;4.90;;;16.30;75.20;;;;;;5075440;28;20028;-78
2021/06/12 04:52:35;;;;;;;6.20;4.68;;;16.30;75.20;;;;;;5075391;28;20016;-78
2021/06/12 04:55:01;;;;;;;9.48;4.82;;;16.50;75.10;;;;;;5075328;28;20381;-78
2021/06/12 04:57:26;;;;;;;7.13;4.80;;;16.50;74.80;;;;;;5075276;28;20027;-78
2021/06/12 04:59:52;;;;;;;7.60;4.38;;;16.70;74.50;;;;;;5073977;28;20036;-79
2021/06/12 05:02:17;;;;;;;5.38;4.78;;;16.80;74.10;;;;;;5073687;28;20040;-79
2021/06/12 05:04:43;;;;;;;5.45;4.85;;;16.90;73.60;;;;;;5075323;28;20052;-78
2021/06/12 05:07:08;;;;;;;4.85;4.35;;;17.10;73.20;;;;;;5075292;28;20082;-75
2021/06/12 05:09:34;;;;;;;5.20;4.72;;;17.20;72.30;;;;;;5083964;28;20021;-75
2021/06/12 05:11:59;;;;;;;7.25;4.93;;;17.20;72.10;;;;;;5084766;28;20065;-74
2021/06/12 05:14:25;;;;;;;7.50;4.85;;;17.20;72.20;;;;;;5077637;28;20028;-74
2021/06/12 05:16:51;;;;;;;5.85;5.35;;;17.30;72.20;;;;;;5077932;28;20489;-75
2021/06/12 05:19:17;;;;;;;7.10;5.80;;;17.40;72.10;;;;;;5075141;28;20040;-77
2021/06/12 05:21:45;;;;;;;5.95;4.65;;;17.50;72.00;;;;;;5074860;28;20046;-77
2021/06/12 05:24:11;;;;;;;6.85;5.15;;;17.60;71.60;;;;;;5074600;28;20399;-82
2021/06/12 05:26:36;;;;;;;7.25;5.70;;;17.70;71.50;;;;;;5074929;28;20119;-80
2021/06/12 05:29:02;;;;;;;7.82;5.40;;;17.80;71.40;;;;;;5074740;28;20016;-80
2021/06/12 05:31:28;;;;;;;6.93;5.63;;;17.70;71.70;;;;;;5074648;28;20050;-81
2021/06/12 05:33:54;;;;;;;5.40;4.90;;;17.80;71.50;;;;;;5074825;28;20477;-82
2021/06/12 05:36:19;;;;;;;6.07;5.43;;;17.90;71.20;;;;;;5074571;28;20017;-78
2021/06/12 05:38:45;;;;;;;6.57;5.70;;;18.00;70.90;;;;;;5074440;28;20024;-77
2021/06/12 05:41:11;;;;;;;6.88;5.70;;;18.00;71.00;;;;;;5074234;28;20033;-77
2021/06/12 05:43:36;;;;;;;5.95;4.82;;;18.10;71.20;;;;;;5074262;28;20068;-77
2021/06/12 05:46:02;;;;;;;5.35;4.72;;;18.30;71.50;;;;;;5074061;28;20052;-76
2021/06/12 05:48:28;;;;;;;7.88;5.10;;;18.30;71.40;;;;;;5074099;28;20081;-77
2021/06/12 05:50:54;;;;;;;5.30;4.43;;;18.50;71.20;;;;;;5074278;28;20028;-77
2021/06/12 05:53:20;;;;;;;5.32;4.82;;;18.70;70.90;;;;;;5074081;28;20040;-78
2021/06/12 05:55:45;;;;;;;5.53;4.85;;;18.80;70.30;;;;;;5073970;28;20341;-78
2021/06/12 05:58:12;;;;;;;6.65;5.40;;;19.00;69.90;;;;;;5074035;28;20100;-78
2021/06/12 06:00:37;;;;;;;5.85;5.07;;;19.00;69.30;;;;;;5074149;28;20021;-78
2021/06/12 06:03:03;;;;;;;4.93;4.43;;;19.20;68.50;;;;;;5073927;28;20081;-77
2021/06/12 06:05:28;;;;;;;5.00;4.50;;;19.30;68.10;;;;;;5073852;28;20028;-78
2021/06/12 06:07:54;;;;;;;7.07;4.97;;;19.40;68.20;;;;;;5073845;28;20047;-77
2021/06/12 06:10:20;;;;;;;5.05;4.55;;;19.50;68.40;;;;;;5073825;28;20107;-78
2021/06/12 06:12:46;;;;;;;5.20;4.40;;;19.50;68.40;;;;;;5073916;28;20023;-78
2021/06/12 06:15:13;;;;;;;5.85;4.70;;;19.70;68.10;;;;;;5073749;28;20059;-79
2021/06/12 06:17:40;;;;;;;8.68;4.85;;;19.80;67.10;;;;;;5073823;28;20059;-79
2021/06/12 06:20:07;;;;;;;6.78;5.15;;;19.90;66.80;;;;;;5073780;28;20024;-77
2021/06/12 06:22:33;;;;;;;6.53;4.70;;;19.90;66.10;;;;;;5073607;28;20524;-79
2021/06/12 06:24:58;;;;;;;6.28;4.80;;;20.00;66.00;;;;;;5073600;28;20035;-79
2021/06/12 06:27:24;;;;;;;6.10;5.00;;;20.10;65.40;;;;;;5073417;28;20089;-79
2021/06/12 06:29:50;;;;;;;6.03;5.13;;;20.10;65.10;;;;;;5073702;28;20025;-78
2021/06/12 06:32:15;;;;;;;5.80;5.18;;;20.20;64.90;;;;;;5072256;28;20028;-79
2021/06/12 06:34:41;;;;;;;6.93;5.07;;;20.30;64.80;;;;;;5073649;28;20028;-78
2021/06/12 06:37:06;;;;;;;8.15;4.90;;;20.40;64.50;;;;;;5073503;28;20470;-78
2021/06/12 06:39:32;;;;;;;7.88;5.18;;;20.50;63.90;;;;;;5073460;28;20389;-78
2021/06/12 06:41:58;;;;;;;5.13;4.63;;;20.60;63.40;;;;;;5073302;28;20036;-78
2021/06/12 06:44:24;;;;;;;5.25;4.38;;;20.80;63.30;;;;;;5073262;28;20032;-78
2021/06/12 06:46:49;;;;;;;6.25;4.60;;;20.90;63.00;;;;;;5073076;28;20056;-81
2021/06/12 06:49:15;;;;;;;5.35;4.55;;;21.00;62.00;;;;;;5073375;28;20025;-77
2021/06/12 06:51:40;;;;;;;5.20;4.65;;;21.20;62.00;;;;;;5073434;28;20043;-78
2021/06/12 06:54:06;;;;;;;4.75;4.35;;;21.30;61.80;;;;;;5073272;28;20108;-81
2021/06/12 06:56:32;;;;;;;4.68;4.28;;;21.50;60.90;;;;;;5071913;28;20048;-78
2021/06/12 06:58:57;;;;;;;5.22;4.72;;;21.60;60.80;;;;;;5073196;28;20032;-80
2021/06/12 07:01:23;;;;;;;5.82;5.13;;;21.80;60.20;;;;;;5073104;28;20036;-79
2021/06/12 07:03:48;;;;;;;4.70;4.20;;;22.00;59.80;;;;;;5073051;28;20024;-80
2021/06/12 07:06:14;;;;;;;4.70;4.22;;;22.20;59.60;;;;;;5072693;28;20097;-77
2021/06/12 07:08:40;;;;;;;8.95;6.75;;;22.40;59.10;;;;;;5072280;28;20028;-77
2021/06/12 07:11:05;;;;;;;12.45;5.25;;;22.40;57.80;;;;;;5072766;28;20047;-76
2021/06/12 07:13:31;;;;;;;21.77;5.68;;;22.60;58.10;;;;;;5072933;28;20027;-74
2021/06/12 07:15:57;;;;;;;9.80;4.97;;;22.70;58.50;;;;;;5072963;28;20173;-74
2021/06/12 07:18:23;;;;;;;13.18;5.45;;;22.90;56.00;;;;;;5073504;28;20086;-76
2021/06/12 07:20:49;;;;;;;8.52;4.30;;;23.00;54.60;;;;;;5072780;28;20532;-74
2021/06/12 07:23:16;;;;;;;6.43;4.38;;;23.20;55.00;;;;;;5073458;28;20028;-75
2021/06/12 07:25:43;;;;;;;7.80;4.18;;;23.40;54.00;;;;;;5072560;28;20056;-75
2021/06/12 07:28:09;;;;;;;6.38;4.70;;;23.60;54.30;;;;;;5072623;28;20029;-75
2021/06/12 07:30:39;;;;;;;6.00;4.07;;;23.80;53.00;;;;;;5072712;28;20027;-76
2021/06/12 07:33:06;;;;;;;11.07;5.85;;;23.80;52.80;;;;;;5072503;28;20024;-76
2021/06/12 07:35:32;;;;;;;7.45;6.47;;;24.00;53.20;;;;;;5072618;28;20094;-73
2021/06/12 07:37:58;;;;;;;7.82;6.97;;;23.80;51.30;;;;;;5073205;28;20477;-72
2021/06/12 07:40:24;;;;;;;6.75;5.90;;;23.70;50.70;;;;;;5072708;28;20025;-74
2021/06/12 07:42:49;;;;;;;6.80;5.15;;;23.70;50.20;;;;;;5072406;28;20115;-74
2021/06/12 07:45:15;;;;;;;6.82;4.57;;;23.80;50.30;;;;;;5072375;28;20142;-74
2021/06/12 07:47:40;;;;;;;7.57;5.82;;;24.00;50.90;;;;;;5072107;28;20049;-73
2021/06/12 07:50:09;;;;;;;9.52;5.85;;;23.90;50.70;;;;;;5072580;28;20108;-76
2021/06/12 07:52:35;;;;;;;7.57;5.75;;;23.90;50.30;;;;;;5072197;28;20025;-74
2021/06/12 07:55:00;;;;;;;6.03;5.43;;;23.80;50.60;;;;;;5072466;28;20028;-73
2021/06/12 07:57:26;;;;;;;8.55;4.40;;;23.80;51.20;;;;;;5072247;28;20056;-76
2021/06/12 07:59:54;;;;;;;6.18;4.28;;;23.80;51.20;;;;;;5072381;28;20100;-73
2021/06/12 08:02:23;;;;;;;5.63;5.00;;;24.00;51.30;;;;;;5072140;28;20032;-74
2021/06/12 08:04:48;;;;;;;6.32;5.30;;;24.10;51.00;;;;;;5072363;28;20025;-74
2021/06/12 08:07:15;;;;;;;5.10;4.60;;;23.90;51.10;;;;;;5072483;28;20017;-76
2021/06/12 08:09:41;;;;;;;5.55;4.80;;;23.90;51.30;;;;;;5072498;28;20103;-73
2021/06/12 08:12:07;;;;;;;6.70;4.40;;;24.00;52.10;;;;;;5072418;28;20056;-73
2021/06/12 08:14:32;;;;;;;7.30;4.63;;;24.00;52.10;;;;;;5072372;28;20020;-73
2021/06/12 08:16:58;;;;;;;6.45;4.18;;;24.10;53.20;;;;;;5072422;28;20074;-73
2021/06/12 08:19:24;;;;;;;5.60;3.88;;;24.10;51.50;;;;;;5073289;28;20039;-75
2021/06/12 08:21:49;;;;;;;5.70;4.20;;;24.10;51.00;;;;;;5076512;28;20481;-75
2021/06/12 08:24:15;;;;;;;4.40;3.90;;;24.20;51.10;;;;;;5076433;28;20389;-75
2021/06/12 08:26:41;;;;;;;7.70;4.25;;;24.20;50.80;;;;;;5074564;28;20032;-74
2021/06/12 08:29:07;;;;;;;5.38;3.58;;;24.20;51.70;;;;;;5078780;28;20024;-75
2021/06/12 08:31:35;;;;;;;8.35;4.00;;;24.20;50.40;;;;;;5081502;28;20024;-77
2021/06/12 08:34:01;;;;;;;5.63;3.90;;;24.10;49.30;;;;;;5079723;28;20032;-75
2021/06/12 08:36:27;;;;;;;6.97;4.30;;;24.20;50.10;;;;;;5076871;28;20044;-75
2021/06/12 08:38:52;;;;;;;7.35;3.70;;;24.30;51.40;;;;;;5075979;28;20052;-75
2021/06/12 08:41:18;;;;;;;4.53;3.83;;;24.40;50.30;;;;;;5073990;28;20037;-76
2021/06/12 08:43:43;;;;;;;7.07;3.55;;;24.40;47.80;;;;;;5075687;28;20468;-74
2021/06/12 08:46:11;;;;;;;4.93;4.28;;;24.40;49.70;;;;;;5075126;28;20045;-74
2021/06/12 08:48:37;;;;;;;4.63;4.18;;;24.40;50.20;;;;;;5075418;28;20028;-74
2021/06/12 08:51:03;;;;;;;5.22;4.07;;;24.50;50.20;;;;;;5075419;28;20028;-73
2021/06/12 08:53:31;;;;;;;4.55;4.05;;;24.70;50.00;;;;;;5073008;28;20025;-73
2021/06/12 08:55:58;;;;;;;6.55;4.32;;;24.70;50.40;;;;;;5074311;28;20040;-73
2021/06/12 08:58:24;;;;;;;5.93;4.18;;;24.80;50.30;;;;;;5074898;28;20069;-77
2021/06/12 09:00:49;;;;;;;8.77;4.90;;;24.90;48.60;;;;;;5075219;28;20024;-73
2021/06/12 09:03:20;;;;;;;5.57;4.45;;;25.00;47.40;;;;;;5074056;28;20028;-74
2021/06/12 09:06:00;;;;;;;5.05;4.22;;;25.00;47.40;;;;;;5075428;28;20089;-81
2021/06/12 09:08:28;;;;;;;5.80;4.50;;;24.90;47.90;;;;;;5075545;28;20499;-81
2021/06/12 09:11:02;;;;;;;7.10;3.97;;;24.80;48.10;;;;;;5075195;28;20377;-83
2021/06/12 09:13:54;;;;;;;4.47;4.05;;;24.90;48.10;;;;;;5075277;28;20032;-73
2021/06/12 09:16:31;;;;;;;7.40;4.55;;;25.20;48.20;;;;;;5075111;28;20052;-74
2021/06/12 09:19:09;;;;;;;7.82;4.55;;;25.40;49.30;;;;;;5075634;28;20028;-74
2021/06/12 09:21:37;;;;;;;4.50;4.10;;;25.30;47.90;;;;;;5074932;28;20067;-73
2021/06/12 09:24:06;;;;;;;7.40;3.95;;;25.10;47.40;;;;;;5075176;28;20095;-74
2021/06/12 09:26:47;;;;;;;5.05;4.22;;;25.00;48.10;;;;;;5073636;28;20032;-74
2021/06/12 09:29:18;;;;;;;4.40;4.00;;;25.10;48.50;;;;;;5075404;28;20392;-73
2021/06/12 09:31:50;;;;;;;4.43;4.03;;;25.00;48.30;;;;;;5074336;28;20458;-73
2021/06/12 09:34:18;;;;;;;5.32;4.22;;;25.00;47.80;;;;;;5074972;28;20031;-74
2021/06/12 09:36:44;;;;;;;6.15;4.55;;;24.90;47.10;;;;;;5075793;28;20111;-74
2021/06/12 09:39:22;;;;;;;6.45;4.28;;;24.80;47.60;;;;;;5075985;28;20021;-73
2021/06/12 09:41:53;;;;;;;8.82;4.05;;;25.00;45.30;;;;;;5076075;28;20757;-75
2021/06/12 09:44:44;;;;;;;10.52;4.22;;;24.90;45.60;;;;;;5077430;28;20096;-75
2021/06/12 09:47:16;;;;;;;5.38;3.55;;;24.90;46.30;;;;;;5077138;28;20377;-75
2021/06/12 09:49:42;;;;;;;3.83;3.42;;;24.90;46.90;;;;;;5080308;28;20069;-75
2021/06/12 09:52:13;;;;;;;4.90;3.80;;;25.10;45.80;;;;;;5077768;28;20028;-75
2021/06/12 09:54:44;;;;;;;5.45;3.90;;;25.40;44.40;;;;;;5077554;28;20027;-76
2021/06/12 09:57:15;;;;;;;5.50;3.78;;;25.60;43.80;;;;;;5074872;28;20392;-75
2021/06/12 10:00:04;;;;;;;5.80;4.00;;;25.70;42.60;;;;;;5074195;28;20083;-75
2021/06/12 10:02:41;;;;;;;5.15;3.38;;;25.70;41.70;;;;;;5074301;28;20036;-75
2021/06/12 10:05:09;;;;;;;5.10;3.60;;;25.50;42.90;;;;;;5074619;28;20028;-73
2021/06/12 10:07:36;;;;;;;5.80;3.22;;;25.80;42.30;;;;;;5074711;28;20322;-75
2021/06/12 10:10:07;;;;;;;3.75;2.85;;;25.80;42.30;;;;;;5076445;28;20533;-75
2021/06/12 10:12:34;;;;;;;3.55;3.15;;;25.90;42.10;;;;;;5079645;28;20032;-75
2021/06/12 10:15:01;;;;;;;3.05;2.53;;;25.60;42.00;;;;;;5074232;28;20021;-74
2021/06/12 10:17:28;;;;;;;2.97;2.63;;;25.70;42.00;;;;;;5074332;28;20028;-75
2021/06/12 10:19:56;;;;;;;3.17;2.70;;;25.80;42.10;;;;;;5072841;28;20078;-74
2021/06/12 10:22:23;;;;;;;4.03;2.58;;;26.10;42.30;;;;;;5076352;28;20036;-75
2021/06/12 10:24:50;;;;;;;2.92;2.53;;;26.20;40.30;;;;;;5074183;28;20028;-77
2021/06/12 10:27:16;;;;;;;5.30;2.53;;;26.20;40.20;;;;;;5075101;28;20024;-75
2021/06/12 10:29:43;;;;;;;4.63;2.28;;;26.20;40.40;;;;;;5074026;28;20048;-76
2021/06/12 10:32:09;;;;;;;2.70;2.08;;;26.40;39.70;;;;;;5073880;28;20020;-76
2021/06/12 10:34:36;;;;;;;5.32;2.10;;;26.40;40.10;;;;;;5073971;28;20105;-79
2021/06/12 10:37:06;;;;;;;2.25;2.05;;;26.20;38.40;;;;;;5073584;28;20098;-77
2021/06/12 10:39:34;;;;;;;3.97;2.10;;;26.20;38.20;;;;;;5073628;28;20120;-79
2021/06/12 10:42:18;;;;;;;2.30;2.10;;;26.10;39.10;;;;;;5071993;28;20501;-79
2021/06/12 10:44:49;;;;;;;4.53;2.40;;;26.10;38.70;;;;;;5073612;28;20020;-79
2021/06/12 10:47:36;;;;;;;2.45;2.03;;;26.10;39.20;;;;;;5073383;28;20044;-77
2021/06/12 10:50:27;;;;;;;2.70;1.83;;;26.10;39.60;;;;;;5072162;28;20055;-77
2021/06/12 10:53:12;;;;;;;3.50;2.33;;;26.10;39.80;;;;;;5073295;28;20396;-75
2021/06/12 10:55:55;;;;;;;3.33;2.27;;;26.00;40.60;;;;;;5073536;28;20086;-77
2021/06/12 10:58:35;;;;;;;3.58;2.22;;;26.00;39.30;;;;;;5073500;28;20028;-77
2021/06/12 11:01:16;;;;;;;3.17;1.92;;;26.20;39.30;;;;;;5073391;28;20028;-77
2021/06/12 11:03:56;;;;;;;3.42;1.80;;;26.30;38.10;;;;;;5073671;28;20064;-77
2021/06/12 11:06:53;;;;;;;4.30;1.77;;;26.40;36.70;;;;;;5073532;28;20033;-77
2021/06/12 11:09:20;;;;;;;2.85;1.80;;;26.40;37.70;;;;;;5073324;28;20441;-77
2021/06/12 11:11:49;;;;;;;2.53;2.08;;;26.50;37.40;;;;;;5074210;28;20425;-86
2021/06/12 11:14:23;;;;;;;2.67;2.22;;;26.70;38.20;;;;;;5076231;28;20025;-78
2021/06/12 11:17:07;;;;;;;4.28;2.28;;;26.70;39.50;;;;;;5081165;28;20021;-78
2021/06/12 11:19:44;;;;;;;3.95;2.10;;;26.70;38.60;;;;;;5073525;28;20028;-78
2021/06/12 11:22:55;;;;;;;4.22;2.00;;;26.50;38.10;;;;;;5072989;28;20032;-78
2021/06/12 11:25:24;;;;;;;3.28;2.30;;;26.20;38.90;;;;;;5062303;28;20032;-78
2021/06/12 11:27:52;;;;;;;5.88;1.90;;;26.10;39.50;;;;;;5073346;28;20461;-77
2021/06/12 11:30:18;;;;;;;2.25;2.03;;;26.30;38.80;;;;;;5072357;28;20031;-78
2021/06/12 11:32:45;;;;;;;3.47;1.98;;;26.30;39.00;;;;;;5075433;28;20021;-78
2021/06/12 11:35:12;;;;;;;2.83;2.05;;;26.60;38.30;;;;;;5087018;28;20027;-78
2021/06/12 11:37:50;;;;;;;2.10;1.80;;;27.10;37.00;;;;;;5081803;28;20477;-77
2021/06/12 11:40:22;;;;;;;3.08;2.13;;;27.10;36.70;;;;;;5073118;28;20036;-77
2021/06/12 11:42:49;;;;;;;2.45;2.17;;;26.80;36.50;;;;;;5072832;28;20040;-78
2021/06/12 11:45:15;;;;;;;3.35;1.77;;;26.80;38.40;;;;;;5073015;28;20063;-78
2021/06/12 11:47:40;;;;;;;2.95;2.00;;;26.90;37.40;;;;;;5073053;28;20079;-77
2021/06/12 11:50:06;;;;;;;2.40;2.20;;;27.20;37.70;;;;;;5071537;28;20142;-77
2021/06/12 11:52:41;;;;;;;2.80;1.98;;;27.30;37.50;;;;;;5072926;28;20092;-76
2021/06/12 11:55:13;;;;;;;5.50;2.22;;;27.30;37.70;;;;;;5079637;28;20032;-77
2021/06/12 11:57:40;;;;;;;2.50;2.28;;;27.40;38.30;;;;;;5086810;28;20029;-77
2021/06/12 12:00:31;;;;;;;5.07;2.25;;;27.50;38.00;;;;;;5079328;28;20161;-77
2021/06/12 12:03:06;;;;;;;4.22;2.00;;;27.80;36.80;;;;;;5079081;28;20033;-77
2021/06/12 12:05:34;;;;;;;3.13;1.90;;;28.20;35.80;;;;;;5079074;28;20531;-77
2021/06/12 12:08:01;;;;;;;5.47;1.90;;;28.20;34.00;;;;;;5079056;28;20536;-77
2021/06/12 12:10:28;;;;;;;5.18;1.80;;;28.00;34.20;;;;;;5079049;28;20024;-77
2021/06/12 12:12:54;;;;;;;5.40;1.70;;;28.20;33.70;;;;;;5079205;28;20031;-77
2021/06/12 12:15:37;;;;;;;2.40;2.20;;;28.50;33.00;;;;;;5079302;28;20393;-78
2021/06/12 12:18:08;;;;;;;1.92;1.40;;;28.50;33.30;;;;;;5079280;28;20047;-77
2021/06/12 12:20:41;;;;;;;7.88;1.60;;;27.50;33.60;;;;;;5079321;28;20017;-77
2021/06/12 12:23:29;;;;;;;3.95;2.00;;;27.40;34.90;;;;;;5078994;28;20409;-77
2021/06/12 12:26:14;;;;;;;3.28;2.10;;;27.50;36.20;;;;;;5078733;28;20138;-77
2021/06/12 12:28:57;;;;;;;3.88;2.17;;;27.60;37.70;;;;;;5079170;28;20032;-78
2021/06/12 12:31:28;;;;;;;1.83;1.25;;;28.10;36.50;;;;;;5078792;28;20032;-77
2021/06/12 12:33:55;;;;;;;3.15;1.30;;;28.20;34.20;;;;;;5079091;28;20587;-79
2021/06/12 12:36:22;;;;;;;3.63;1.20;;;28.30;33.10;;;;;;5078853;28;20154;-77
2021/06/12 12:38:59;;;;;;;2.67;1.65;;;28.00;32.00;;;;;;5079109;28;20029;-78
2021/06/12 12:41:27;;;;;;;1.30;1.20;;;27.90;32.20;;;;;;5078784;28;20039;-78
2021/06/12 12:44:16;;;;;;;2.28;1.20;;;27.80;32.70;;;;;;5078805;28;20106;-78
2021/06/12 12:46:45;;;;;;;4.13;1.30;;;27.70;32.00;;;;;;5081077;28;20048;-78
2021/06/12 12:49:21;;;;;;;5.30;1.55;;;27.90;33.10;;;;;;5078994;28;20036;-79
2021/06/12 12:51:52;;;;;;;1.63;1.50;;;28.20;32.00;;;;;;5079034;28;20017;-78
2021/06/12 12:54:19;;;;;;;1.33;1.25;;;27.90;32.10;;;;;;5079300;28;20029;-77